createdAt,value
2023-02-11T00:02:05.364Z,70.70
2023-02-11T00:04:32.187Z,56.95
2023-02-11T00:06:58.800Z,53.83
2023-02-11T00:09:25.494Z,52.55
2023-02-11T00:11:52.272Z,58.65
2023-02-11T00:14:18.969Z,48.55
2023-02-11T00:16:45.729Z,51.88
2023-02-11T00:19:12.437Z,62.08
2023-02-11T00:21:40.281Z,50.05
2023-02-11T00:24:07.018Z,49.60
2023-02-11T00:26:34.627Z,58.47
2023-02-11T00:29:01.600Z,54.80
2023-02-11T00:31:31.673Z,60.95
2023-02-11T00:34:00.001Z,60.67
2023-02-11T00:36:29.476Z,54.72
2023-02-11T00:38:57.046Z,59.35
2023-02-11T00:41:24.388Z,54.65
2023-02-11T00:43:51.392Z,53.50
2023-02-11T00:46:19.131Z,64.65
2023-02-11T00:48:48.255Z,55.78
2023-02-11T00:51:15.230Z,56.83
2023-02-11T00:53:44.234Z,50.90
2023-02-11T00:56:10.996Z,59.35
2023-02-11T00:58:37.932Z,59.15
2023-02-11T01:01:05.260Z,63.40
2023-02-11T01:03:32.901Z,61.25
2023-02-11T01:06:00.179Z,62.25
2023-02-11T01:08:26.976Z,54.33
2023-02-11T01:10:58.828Z,59.78
2023-02-11T01:13:25.943Z,57.17
2023-02-11T01:15:54.530Z,62.83
2023-02-11T01:18:39.862Z,55.72
2023-02-11T01:21:25.900Z,56.28
2023-02-11T01:23:52.793Z,53.47
2023-02-11T01:26:19.621Z,70.40
2023-02-11T01:28:46.424Z,56.42
2023-02-11T01:31:13.363Z,61.05
2023-02-11T01:33:40.234Z,61.33
2023-02-11T01:36:07.697Z,66.43
2023-02-11T01:38:34.830Z,65.43
2023-02-11T01:41:03.565Z,65.18
2023-02-11T01:43:36.399Z,66.03
2023-02-11T01:46:14.926Z,57.65
2023-02-11T01:48:47.302Z,60.17
2023-02-11T01:51:20.097Z,59.45
2023-02-11T01:54:06.513Z,62.33
2023-02-11T01:56:53.346Z,54.08
2023-02-11T01:59:28.565Z,64.63
2023-02-11T02:01:58.738Z,58.80
2023-02-11T02:04:31.274Z,56.70
2023-02-11T02:07:11.111Z,53.78
2023-02-11T02:09:44.160Z,71.72
2023-02-11T02:12:10.887Z,50.88
2023-02-11T02:14:41.678Z,52.88
2023-02-11T02:17:15.070Z,66.28
2023-02-11T02:19:53.523Z,63.72
2023-02-11T02:22:24.764Z,56.42
2023-02-11T02:25:10.200Z,56.58
2023-02-11T02:27:45.802Z,65.10
2023-02-11T02:30:31.019Z,58.72
2023-02-11T02:33:22.409Z,57.40
2023-02-11T02:35:52.602Z,51.75
2023-02-11T02:38:39.618Z,51.50
2023-02-11T02:41:13.974Z,54.40
2023-02-11T02:43:42.850Z,51.58
2023-02-11T02:46:10.795Z,58.55
2023-02-11T02:48:37.673Z,53.15
2023-02-11T02:51:04.383Z,66.15
2023-02-11T02:53:36.648Z,55.70
2023-02-11T02:56:12.461Z,59.72
2023-02-11T02:59:04.106Z,52.28
2023-02-11T03:01:39.877Z,57.78
2023-02-11T03:04:14.402Z,54.30
2023-02-11T03:06:41.071Z,40.90
2023-02-11T03:09:12.757Z,52.58
2023-02-11T03:11:39.958Z,51.92
2023-02-11T03:14:09.775Z,55.60
2023-02-11T03:16:39.265Z,59.28
2023-02-11T03:19:12.593Z,46.17
2023-02-11T03:21:41.552Z,65.03
2023-02-11T03:24:14.533Z,47.53
2023-02-11T03:26:44.671Z,50.70
2023-02-11T03:29:32.292Z,53.63
2023-02-11T03:32:02.075Z,63.83
2023-02-11T03:34:28.870Z,52.67
2023-02-11T03:37:04.411Z,52.28
2023-02-11T03:39:36.610Z,47.25
2023-02-11T03:42:04.319Z,49.50
2023-02-11T03:44:34.837Z,56.05
2023-02-11T03:47:03.422Z,48.95
2023-02-11T03:49:30.384Z,52.70
2023-02-11T03:51:57.377Z,51.72
2023-02-11T03:54:29.344Z,48.83
2023-02-11T03:56:57.896Z,48.60
2023-02-11T03:59:24.676Z,55.67
2023-02-11T04:01:51.779Z,49.63
2023-02-11T04:04:18.569Z,48.10
2023-02-11T04:06:45.338Z,51.33
2023-02-11T04:09:12.084Z,53.10
2023-02-11T04:11:38.764Z,53.35
2023-02-11T04:14:05.412Z,52.75
2023-02-11T04:16:32.190Z,52.63
2023-02-11T04:18:58.880Z,50.65
2023-02-11T04:21:25.615Z,42.88
2023-02-11T04:23:52.334Z,49.38
2023-02-11T04:26:19.114Z,71.90
2023-02-11T04:28:45.763Z,53.67
2023-02-11T04:31:12.925Z,63.55
2023-02-11T04:33:39.721Z,52.35
2023-02-11T04:36:06.569Z,56.60
2023-02-11T04:38:33.380Z,50.08
2023-02-11T04:41:00.580Z,47.00
2023-02-11T04:43:27.293Z,55.63
2023-02-11T04:45:56.672Z,51.13
2023-02-11T04:48:23.384Z,53.25
2023-02-11T04:50:50.589Z,45.67
2023-02-11T04:53:18.298Z,50.08
2023-02-11T04:55:45.041Z,54.72
2023-02-11T04:58:12.118Z,47.65
2023-02-11T05:00:39.103Z,44.95
2023-02-11T05:03:06.162Z,52.58
2023-02-11T05:05:32.858Z,50.20
2023-02-11T05:08:01.280Z,47.95
2023-02-11T05:10:28.672Z,45.30
2023-02-11T05:12:56.066Z,48.85
2023-02-11T05:15:22.933Z,41.00
2023-02-11T05:17:49.726Z,44.35
2023-02-11T05:20:16.426Z,42.83
2023-02-11T05:22:43.047Z,47.35
2023-02-11T05:25:09.713Z,46.47
2023-02-11T05:27:36.364Z,45.83
2023-02-11T05:30:04.440Z,48.42
2023-02-11T05:32:31.203Z,44.15
2023-02-11T05:34:57.896Z,44.17
2023-02-11T05:37:24.673Z,47.55
2023-02-11T05:39:51.389Z,38.63
2023-02-11T05:42:17.981Z,45.22
2023-02-11T05:44:44.691Z,40.88
2023-02-11T05:47:11.464Z,40.65
2023-02-11T05:49:38.139Z,47.78
2023-02-11T05:52:05.408Z,46.03
2023-02-11T05:54:32.162Z,47.05
2023-02-11T05:56:58.871Z,42.58
2023-02-11T05:59:26.305Z,39.47
2023-02-11T06:01:53.031Z,42.85
2023-02-11T06:04:19.781Z,46.22
2023-02-11T06:06:46.409Z,45.83
2023-02-11T06:09:13.244Z,43.47
2023-02-11T06:11:40.067Z,40.45
2023-02-11T06:14:06.836Z,38.28
2023-02-11T06:16:33.521Z,39.92
2023-02-11T06:19:00.203Z,38.08
2023-02-11T06:21:42.400Z,44.53
2023-02-11T06:24:10.405Z,48.35
2023-02-11T06:26:37.121Z,43.25
2023-02-11T06:29:03.781Z,42.17
2023-02-11T06:31:30.653Z,50.10
2023-02-11T06:33:58.865Z,46.40
2023-02-11T06:36:26.067Z,45.60
2023-02-11T06:38:52.879Z,48.95
2023-02-11T06:41:22.665Z,39.63
2023-02-11T06:43:49.512Z,47.88
2023-02-11T06:46:16.310Z,44.75
2023-02-11T06:48:44.923Z,43.38
2023-02-11T06:51:13.484Z,57.00
2023-02-11T06:53:41.805Z,49.17
2023-02-11T06:56:10.042Z,50.80
2023-02-11T06:58:37.026Z,43.17
2023-02-11T07:01:06.593Z,47.03
2023-02-11T07:03:35.044Z,46.42
2023-02-11T07:06:02.603Z,41.92
2023-02-11T07:08:29.666Z,42.00
2023-02-11T07:10:56.507Z,44.72
2023-02-11T07:13:23.302Z,47.95
2023-02-11T07:15:50.531Z,49.60
2023-02-11T07:18:17.444Z,50.13
2023-02-11T07:20:44.430Z,47.72
2023-02-11T07:23:11.330Z,48.70
2023-02-11T07:25:38.070Z,45.10
2023-02-11T07:28:04.985Z,59.53
2023-02-11T07:30:31.741Z,52.92
2023-02-11T07:32:58.487Z,46.78
2023-02-11T07:35:25.186Z,59.83
2023-02-11T07:37:52.012Z,56.60
2023-02-11T07:40:19.414Z,57.28
2023-02-11T07:42:46.464Z,65.22
2023-02-11T07:45:18.130Z,56.35
2023-02-11T07:47:48.684Z,47.40
2023-02-11T07:50:16.216Z,59.17
2023-02-11T07:52:44.605Z,53.20
2023-02-11T07:55:16.837Z,54.47
2023-02-11T07:57:43.996Z,50.85
2023-02-11T08:00:11.448Z,54.00
2023-02-11T08:02:38.257Z,56.88
2023-02-11T08:05:09.323Z,46.47
2023-02-11T08:07:38.708Z,56.05
2023-02-11T08:10:05.608Z,53.72
2023-02-11T08:12:37.683Z,53.17
2023-02-11T08:15:07.633Z,55.30
2023-02-11T08:17:38.707Z,56.30
2023-02-11T08:20:09.754Z,66.13
2023-02-11T08:22:36.730Z,57.28
2023-02-11T08:25:13.204Z,58.33
2023-02-11T08:27:40.182Z,53.72
2023-02-11T08:30:07.143Z,49.20
2023-02-11T08:32:47.127Z,54.13
2023-02-11T08:35:16.554Z,53.55
2023-02-11T08:37:55.482Z,51.92
2023-02-11T08:40:27.055Z,61.22
2023-02-11T08:42:53.763Z,56.25
2023-02-11T08:45:26.141Z,50.80
2023-02-11T08:48:02.744Z,53.28
2023-02-11T08:50:31.953Z,61.05
2023-02-11T08:52:59.936Z,51.88
2023-02-11T08:55:32.061Z,54.58
2023-02-11T08:58:07.284Z,47.65
2023-02-11T09:00:40.271Z,48.58
2023-02-11T09:03:10.008Z,49.70
2023-02-11T09:05:54.984Z,52.10
2023-02-11T09:08:22.821Z,55.75
2023-02-11T09:10:57.879Z,51.65
2023-02-11T09:13:36.330Z,60.40
2023-02-11T09:16:20.668Z,52.88
2023-02-11T09:18:53.479Z,50.38
2023-02-11T09:21:29.493Z,50.45
2023-02-11T09:23:59.432Z,55.83
2023-02-11T09:26:31.111Z,50.38
2023-02-11T09:29:05.104Z,49.10
2023-02-11T09:31:37.475Z,59.70
2023-02-11T09:34:08.790Z,52.28
2023-02-11T09:36:42.568Z,51.50
2023-02-11T09:39:17.472Z,60.45
2023-02-11T09:41:53.661Z,53.60
2023-02-11T09:47:10.770Z,49.10
2023-02-11T09:49:48.595Z,52.22
2023-02-11T09:52:38.687Z,55.88
2023-02-11T09:55:30.404Z,53.95
2023-02-11T09:58:07.212Z,60.40
2023-02-11T10:00:45.286Z,46.47
2023-02-11T10:03:37.855Z,46.25
2023-02-11T10:06:12.513Z,56.60
2023-02-11T10:08:54.023Z,53.30
2023-02-11T10:11:31.659Z,47.70
2023-02-11T10:14:32.780Z,44.83
2023-02-11T10:17:02.271Z,59.28
2023-02-11T10:19:34.936Z,50.83
2023-02-11T10:22:07.611Z,54.88
2023-02-11T10:24:40.174Z,57.83
2023-02-11T10:27:16.745Z,52.00
2023-02-11T10:29:49.929Z,47.28
2023-02-11T10:32:35.481Z,56.38
2023-02-11T10:35:06.262Z,43.47
2023-02-11T10:37:39.068Z,46.17
2023-02-11T10:40:21.788Z,47.85
2023-02-11T10:42:55.507Z,51.67
2023-02-11T10:48:07.782Z,44.58
2023-02-11T10:50:45.602Z,53.28
2023-02-11T10:55:57.768Z,44.28
2023-02-11T10:58:47.647Z,55.60
2023-02-11T11:01:25.197Z,47.75
2023-02-11T11:06:42.743Z,45.90
2023-02-11T11:09:27.034Z,44.38
2023-02-11T11:12:00.264Z,44.38
2023-02-11T11:14:30.678Z,51.03
2023-02-11T11:16:57.455Z,46.92
2023-02-11T11:19:27.982Z,46.83
2023-02-11T11:21:56.622Z,39.83
2023-02-11T11:27:30.501Z,44.67
2023-02-11T11:30:08.707Z,42.30
2023-02-11T11:32:41.131Z,37.55
2023-02-11T11:35:21.387Z,42.30
2023-02-11T11:38:02.121Z,42.88
2023-02-11T11:40:36.659Z,38.13
2023-02-11T11:46:24.513Z,40.30
2023-02-11T11:49:05.202Z,47.72
2023-02-11T11:51:39.682Z,41.17
2023-02-11T11:54:12.779Z,41.63
2023-02-11T11:56:59.268Z,40.88
2023-02-11T11:59:38.140Z,40.10
2023-02-11T12:02:08.448Z,41.08
2023-02-11T12:07:20.059Z,46.15
2023-02-11T12:09:52.260Z,45.15
2023-02-11T12:12:37.637Z,40.25
2023-02-11T12:15:11.786Z,40.42
2023-02-11T12:17:47.596Z,40.58
2023-02-11T12:20:19.528Z,48.20
2023-02-11T12:22:49.333Z,43.40
2023-02-11T12:25:21.890Z,52.53
2023-02-11T12:28:07.460Z,44.10
2023-02-11T12:30:40.261Z,40.15
2023-02-11T12:33:24.892Z,40.85
2023-02-11T12:35:59.246Z,46.47
2023-02-11T12:38:35.041Z,44.60
2023-02-11T12:41:40.311Z,48.65
2023-02-11T12:44:10.009Z,45.85
2023-02-11T12:46:46.457Z,44.90
2023-02-11T12:49:30.737Z,52.53
2023-02-11T12:52:03.198Z,54.65
2023-02-11T12:54:31.952Z,44.13
2023-02-11T12:57:15.450Z,51.85
2023-02-11T12:59:52.310Z,51.23
2023-02-11T13:02:36.541Z,61.25
2023-02-11T13:07:33.260Z,55.13
2023-02-11T13:10:19.868Z,53.67
2023-02-11T13:13:07.049Z,46.78
2023-02-11T13:15:33.900Z,51.25
2023-02-11T13:18:14.077Z,47.75
2023-02-11T13:20:58.943Z,50.30
2023-02-11T13:23:31.707Z,47.85
2023-02-11T13:26:18.230Z,48.70
2023-02-11T13:28:57.357Z,49.85
2023-02-11T13:31:27.575Z,51.65
2023-02-11T13:33:55.261Z,50.85
2023-02-11T13:36:24.710Z,57.30
2023-02-11T13:38:52.895Z,52.70
2023-02-11T13:41:24.783Z,48.92
2023-02-11T13:43:59.692Z,56.53
2023-02-11T13:46:29.260Z,58.95
2023-02-11T13:48:56.811Z,53.55
2023-02-11T13:51:37.774Z,56.60
2023-02-11T13:54:05.301Z,54.42
2023-02-11T13:56:44.065Z,62.50
2023-02-11T13:59:26.594Z,53.28
2023-02-11T14:02:12.035Z,53.75
2023-02-11T14:05:16.332Z,51.30
2023-02-11T14:08:21.423Z,55.10
2023-02-11T14:10:49.496Z,53.97
2023-02-11T14:13:16.569Z,65.10
2023-02-11T14:15:46.035Z,50.92
2023-02-11T14:18:31.977Z,51.75
2023-02-11T14:21:14.425Z,65.13
2023-02-11T14:23:49.294Z,51.42
2023-02-11T14:26:37.347Z,47.03
2023-02-11T14:29:19.873Z,54.20
2023-02-11T14:31:59.818Z,46.50
2023-02-11T14:34:45.216Z,48.80
2023-02-11T14:37:14.886Z,55.67
2023-02-11T14:40:09.507Z,48.08
2023-02-11T14:45:11.380Z,66.90
2023-02-11T14:47:46.452Z,47.42
2023-02-11T14:50:24.836Z,47.83
2023-02-11T14:53:01.223Z,49.83
2023-02-11T14:55:40.757Z,47.42
2023-02-11T14:58:17.899Z,63.05
2023-02-11T15:00:56.126Z,53.05
2023-02-11T15:03:30.790Z,45.95
2023-02-11T15:06:16.922Z,47.57
2023-02-11T15:08:58.675Z,45.90
2023-02-11T15:11:30.711Z,47.90
2023-02-11T15:14:08.648Z,64.38
2023-02-11T15:16:44.987Z,47.97
2023-02-11T15:19:37.423Z,53.40
2023-02-11T15:22:08.438Z,47.88
2023-02-11T15:24:38.130Z,47.95
2023-02-11T15:27:28.474Z,51.13
2023-02-11T15:30:03.756Z,52.35
2023-02-11T15:32:36.148Z,59.47
2023-02-11T15:35:08.673Z,50.25
2023-02-11T15:37:42.213Z,48.65
2023-02-11T15:43:06.167Z,50.55
2023-02-11T15:45:41.316Z,48.75
2023-02-11T15:48:13.120Z,49.95
2023-02-11T15:50:43.948Z,50.78
2023-02-11T15:53:35.458Z,51.58
2023-02-11T15:56:07.886Z,46.78
2023-02-11T15:58:44.444Z,49.10
2023-02-11T16:01:14.054Z,50.22
2023-02-11T16:03:41.809Z,61.40
2023-02-11T16:06:18.405Z,50.67
2023-02-11T16:09:04.583Z,50.33
2023-02-11T16:11:37.081Z,44.70
2023-02-11T16:14:26.140Z,54.08
2023-02-11T16:16:56.365Z,54.55
2023-02-11T16:19:33.198Z,55.10
2023-02-11T16:22:02.410Z,53.28
2023-02-11T16:24:32.451Z,58.90
2023-02-11T16:27:02.383Z,64.82
2023-02-11T16:29:36.689Z,55.15
2023-02-11T16:32:18.705Z,50.35
2023-02-11T16:37:19.789Z,53.08
2023-02-11T16:39:52.685Z,54.63
2023-02-11T16:42:20.510Z,63.55
2023-02-11T16:44:54.393Z,63.92
2023-02-11T16:47:27.884Z,71.97
2023-02-11T16:50:02.206Z,66.30
2023-02-11T16:52:37.572Z,58.03
2023-02-11T16:55:08.787Z,65.97
2023-02-11T16:57:41.395Z,69.25
2023-02-11T17:00:14.372Z,77.15
2023-02-11T17:02:45.188Z,78.68
2023-02-11T17:05:55.313Z,83.07
2023-02-11T17:08:27.676Z,169.50
2023-02-11T17:10:54.668Z,157.10
2023-02-11T17:13:33.429Z,107.32
2023-02-11T17:16:04.420Z,99.47
2023-02-11T17:18:45.444Z,84.45
2023-02-11T17:21:15.508Z,86.20
2023-02-11T17:23:50.968Z,80.63
2023-02-11T17:26:20.922Z,71.05
2023-02-11T17:28:52.408Z,61.97
2023-02-11T17:31:23.379Z,65.75
2023-02-11T17:34:02.510Z,72.75
2023-02-11T17:36:33.900Z,67.72
2023-02-11T17:39:01.332Z,88.63
2023-02-11T17:41:35.137Z,66.90
2023-02-11T17:44:08.385Z,71.30
2023-02-11T17:46:40.722Z,70.70
2023-02-11T17:49:19.660Z,78.38
2023-02-11T17:51:52.474Z,57.58
2023-02-11T17:54:29.110Z,57.07
2023-02-11T17:57:00.849Z,84.85
2023-02-11T17:59:39.154Z,86.03
2023-02-11T18:02:12.326Z,63.38
2023-02-11T18:04:46.167Z,68.80
2023-02-11T18:09:43.736Z,61.10
2023-02-11T18:12:13.417Z,76.18
2023-02-11T18:14:45.437Z,62.05
2023-02-11T18:17:12.824Z,82.30
2023-02-11T18:19:41.674Z,96.07
2023-02-11T18:22:09.940Z,70.85
2023-02-11T18:24:36.640Z,72.35
2023-02-11T18:27:05.633Z,67.43
2023-02-11T18:29:32.425Z,72.22
2023-02-11T18:32:08.777Z,65.40
2023-02-11T18:34:41.393Z,74.25
2023-02-11T18:39:46.188Z,61.50
2023-02-11T18:42:12.938Z,72.85
2023-02-11T18:44:40.398Z,77.38
2023-02-11T18:47:15.273Z,87.10
2023-02-11T18:49:51.135Z,86.63
2023-02-11T18:52:20.415Z,75.90
2023-02-11T18:54:52.009Z,84.05
2023-02-11T18:57:21.387Z,84.35
2023-02-11T18:59:50.704Z,74.93
2023-02-11T19:02:18.012Z,77.88
2023-02-11T19:04:45.275Z,85.78
2023-02-11T19:07:12.126Z,78.65
2023-02-11T19:09:40.157Z,76.07
2023-02-11T19:12:07.970Z,64.57
2023-02-11T19:14:35.147Z,78.32
2023-02-11T19:17:12.686Z,70.68
2023-02-11T19:19:41.042Z,67.20
2023-02-11T19:22:10.560Z,74.97
2023-02-11T19:24:37.546Z,83.82
2023-02-11T19:27:04.828Z,87.78
2023-02-11T19:29:35.369Z,69.10
2023-02-11T19:32:03.194Z,75.80
2023-02-11T19:34:29.893Z,76.00
2023-02-11T19:36:59.256Z,72.53
2023-02-11T19:39:26.020Z,82.13
2023-02-11T19:41:52.949Z,78.45
2023-02-11T19:44:21.735Z,87.13
2023-02-11T19:46:50.169Z,74.43
2023-02-11T19:49:22.746Z,75.78
2023-02-11T19:51:53.458Z,80.40
2023-02-11T19:54:23.466Z,99.15
2023-02-11T19:56:58.679Z,87.75
2023-02-11T19:59:25.297Z,79.80
2023-02-11T20:01:54.308Z,73.88
2023-02-11T20:04:21.452Z,80.32
2023-02-11T20:06:48.928Z,75.75
2023-02-11T20:09:15.688Z,77.40
2023-02-11T20:11:42.644Z,74.43
2023-02-11T20:14:11.568Z,70.90
2023-02-11T20:16:48.261Z,78.35
2023-02-11T20:19:20.056Z,66.20
2023-02-11T20:21:47.920Z,68.82
2023-02-11T20:24:15.484Z,68.55
2023-02-11T20:26:42.565Z,68.18
2023-02-11T20:29:09.832Z,61.58
2023-02-11T20:31:36.965Z,69.95
2023-02-11T20:34:04.164Z,78.22
2023-02-11T20:36:32.306Z,73.95
2023-02-11T20:38:59.693Z,74.82
2023-02-11T20:41:28.990Z,75.43
2023-02-11T20:43:58.007Z,68.43
2023-02-11T20:46:25.909Z,69.35
2023-02-11T20:48:53.091Z,69.35
2023-02-11T20:51:21.498Z,77.43
2023-02-11T20:53:49.986Z,62.97
2023-02-11T20:56:22.205Z,65.28
2023-02-11T20:58:49.476Z,70.07
2023-02-11T21:01:18.529Z,66.03
2023-02-11T21:03:49.481Z,71.35
2023-02-11T21:06:16.635Z,68.63
2023-02-11T21:08:43.401Z,66.88
2023-02-11T21:11:10.447Z,69.28
2023-02-11T21:13:37.594Z,68.60
2023-02-11T21:16:04.790Z,75.82
2023-02-11T21:18:32.235Z,91.88
2023-02-11T21:21:04.300Z,81.03
2023-02-11T21:23:32.562Z,75.93
2023-02-11T21:25:59.351Z,78.82
2023-02-11T21:28:26.612Z,75.15
2023-02-11T21:30:54.360Z,74.70
2023-02-11T21:33:21.250Z,77.60
2023-02-11T21:35:48.174Z,70.32
2023-02-11T21:38:15.017Z,70.55
2023-02-11T21:40:41.768Z,71.03
2023-02-11T21:43:08.629Z,67.15
2023-02-11T21:45:35.407Z,77.65
2023-02-11T21:48:02.328Z,72.60
2023-02-11T21:50:29.069Z,68.18
2023-02-11T21:52:56.084Z,74.78
2023-02-11T21:55:22.883Z,57.67
2023-02-11T21:57:49.758Z,63.17
2023-02-11T22:00:17.678Z,67.45
2023-02-11T22:02:44.573Z,66.88
2023-02-11T22:05:11.361Z,74.70
2023-02-11T22:07:38.000Z,77.60
2023-02-11T22:10:04.911Z,79.13
2023-02-11T22:12:31.742Z,60.85
2023-02-11T22:14:58.484Z,67.85
2023-02-11T22:17:26.113Z,69.57
2023-02-11T22:19:53.260Z,67.07
2023-02-11T22:22:20.208Z,72.53
2023-02-11T22:24:46.968Z,65.65
2023-02-11T22:27:14.254Z,66.45
2023-02-11T22:29:40.922Z,64.53
2023-02-11T22:32:08.309Z,66.55
2023-02-11T22:34:35.410Z,66.80
2023-02-11T22:37:02.579Z,70.38
2023-02-11T22:39:29.420Z,63.08
2023-02-11T22:41:59.171Z,68.72
2023-02-11T22:44:26.342Z,64.25
2023-02-11T22:46:53.521Z,102.53
2023-02-11T22:49:21.186Z,92.75
2023-02-11T22:51:48.323Z,92.95
2023-02-11T22:54:16.513Z,85.00
2023-02-11T22:56:43.664Z,85.10
2023-02-11T22:59:14.322Z,84.20
2023-02-11T23:01:41.234Z,67.40
2023-02-11T23:04:10.290Z,64.88
2023-02-11T23:06:36.982Z,71.90
2023-02-11T23:09:07.081Z,70.75
2023-02-11T23:11:49.402Z,73.05
2023-02-11T23:14:16.388Z,63.65
2023-02-11T23:16:43.194Z,69.45
2023-02-11T23:19:10.525Z,64.97
2023-02-11T23:21:38.446Z,64.60
2023-02-11T23:24:06.759Z,61.05
2023-02-11T23:26:33.643Z,63.35
2023-02-11T23:29:00.821Z,71.70
2023-02-11T23:31:30.263Z,66.57
2023-02-11T23:33:57.146Z,66.25
2023-02-11T23:36:24.039Z,56.78
2023-02-11T23:38:51.309Z,65.30
2023-02-11T23:41:18.185Z,61.67
2023-02-11T23:43:44.948Z,61.47
2023-02-11T23:46:11.759Z,63.20
2023-02-11T23:48:40.318Z,66.18
2023-02-11T23:51:09.535Z,65.20
2023-02-11T23:53:39.957Z,62.55
2023-02-11T23:56:10.143Z,83.00
2023-02-11T23:58:37.496Z,75.65
